sensor_id;sensor_type;location;lat;lon;timestamp;P1;durP1;ratioP1;P2;durP2;ratioP2
37355;SDS011;48747;50.250;18.848;2022-12-18T00:00:16;73.65;;;25.05;;
37355;SDS011;48747;50.250;18.848;2022-12-18T00:02:19;73.95;;;26.00;;
37355;SDS011;48747;50.250;18.848;2022-12-18T00:04:24;68.17;;;23.15;;
37355;SDS011;48747;50.250;18.848;2022-12-18T00:06:28;78.00;;;26.52;;
37355;SDS011;48747;50.250;18.848;2022-12-18T00:08:31;90.95;;;29.10;;
37355;SDS011;48747;50.250;18.848;2022-12-18T00:10:35;74.42;;;25.30;;
37355;SDS011;48747;50.250;18.848;2022-12-18T00:12:38;78.30;;;25.10;;
37355;SDS011;48747;50.250;18.848;2022-12-18T00:14:41;77.00;;;24.05;;
37355;SDS011;48747;50.250;18.848;2022-12-18T00:16:44;73.83;;;24.90;;
37355;SDS011;48747;50.250;18.848;2022-12-18T00:18:49;93.37;;;30.95;;
37355;SDS011;48747;50.250;18.848;2022-12-18T00:20:53;70.10;;;24.32;;
37355;SDS011;48747;50.250;18.848;2022-12-18T00:22:57;65.72;;;24.72;;
37355;SDS011;48747;50.250;18.848;2022-12-18T00:25:00;69.40;;;26.17;;
37355;SDS011;48747;50.250;18.848;2022-12-18T00:27:04;91.22;;;29.25;;
37355;SDS011;48747;50.250;18.848;2022-12-18T00:29:09;214.27;;;57.30;;
37355;SDS011;48747;50.250;18.848;2022-12-18T00:31:15;113.65;;;36.75;;
37355;SDS011;48747;50.250;18.848;2022-12-18T00:33:20;99.17;;;33.95;;
37355;SDS011;48747;50.250;18.848;2022-12-18T00:35:23;68.50;;;25.02;;
37355;SDS011;48747;50.250;18.848;2022-12-18T00:37:26;75.50;;;26.27;;
37355;SDS011;48747;50.250;18.848;2022-12-18T00:39:30;73.42;;;25.02;;
37355;SDS011;48747;50.250;18.848;2022-12-18T00:41:33;55.12;;;20.95;;
37355;SDS011;48747;50.250;18.848;2022-12-18T00:43:54;46.10;;;16.60;;
37355;SDS011;48747;50.250;18.848;2022-12-18T00:45:57;60.23;;;22.85;;
37355;SDS011;48747;50.250;18.848;2022-12-18T00:48:00;63.30;;;23.70;;
37355;SDS011;48747;50.250;18.848;2022-12-18T00:50:03;64.75;;;23.00;;
37355;SDS011;48747;50.250;18.848;2022-12-18T00:52:06;69.70;;;23.95;;
37355;SDS011;48747;50.250;18.848;2022-12-18T00:54:10;64.92;;;24.80;;
37355;SDS011;48747;50.250;18.848;2022-12-18T00:56:13;65.92;;;24.00;;
37355;SDS011;48747;50.250;18.848;2022-12-18T00:58:16;60.48;;;23.20;;
37355;SDS011;48747;50.250;18.848;2022-12-18T01:00:19;61.98;;;23.67;;
37355;SDS011;48747;50.250;18.848;2022-12-18T01:02:23;59.60;;;22.52;;
37355;SDS011;48747;50.250;18.848;2022-12-18T01:04:26;87.22;;;31.70;;
37355;SDS011;48747;50.250;18.848;2022-12-18T01:06:29;77.75;;;29.27;;
37355;SDS011;48747;50.250;18.848;2022-12-18T01:08:32;75.20;;;28.05;;
37355;SDS011;48747;50.250;18.848;2022-12-18T01:10:35;61.90;;;25.20;;
37355;SDS011;48747;50.250;18.848;2022-12-18T01:12:40;61.95;;;25.88;;
37355;SDS011;48747;50.250;18.848;2022-12-18T01:14:43;61.63;;;24.02;;
37355;SDS011;48747;50.250;18.848;2022-12-18T01:16:46;62.05;;;23.67;;
37355;SDS011;48747;50.250;18.848;2022-12-18T01:18:52;73.60;;;28.62;;
37355;SDS011;48747;50.250;18.848;2022-12-18T01:20:56;89.25;;;34.38;;
37355;SDS011;48747;50.250;18.848;2022-12-18T01:22:59;71.92;;;29.07;;
37355;SDS011;48747;50.250;18.848;2022-12-18T01:25:03;78.65;;;29.12;;
37355;SDS011;48747;50.250;18.848;2022-12-18T01:27:07;75.70;;;29.37;;
37355;SDS011;48747;50.250;18.848;2022-12-18T01:29:10;74.55;;;29.45;;
37355;SDS011;48747;50.250;18.848;2022-12-18T01:31:14;72.50;;;27.10;;
37355;SDS011;48747;50.250;18.848;2022-12-18T01:33:22;65.87;;;25.12;;
37355;SDS011;48747;50.250;18.848;2022-12-18T01:35:25;57.88;;;24.20;;
37355;SDS011;48747;50.250;18.848;2022-12-18T01:37:28;77.97;;;29.05;;
37355;SDS011;48747;50.250;18.848;2022-12-18T01:39:31;69.32;;;26.87;;
37355;SDS011;48747;50.250;18.848;2022-12-18T01:41:35;74.95;;;28.40;;
37355;SDS011;48747;50.250;18.848;2022-12-18T01:43:56;80.90;;;27.80;;
37355;SDS011;48747;50.250;18.848;2022-12-18T01:46:00;79.00;;;29.65;;
37355;SDS011;48747;50.250;18.848;2022-12-18T01:48:03;75.70;;;30.05;;
37355;SDS011;48747;50.250;18.848;2022-12-18T01:50:12;75.72;;;29.18;;
37355;SDS011;48747;50.250;18.848;2022-12-18T01:52:28;72.67;;;28.52;;
37355;SDS011;48747;50.250;18.848;2022-12-18T01:54:33;78.28;;;29.05;;
37355;SDS011;48747;50.250;18.848;2022-12-18T01:56:36;94.28;;;33.95;;
37355;SDS011;48747;50.250;18.848;2022-12-18T01:58:41;91.32;;;32.13;;
37355;SDS011;48747;50.250;18.848;2022-12-18T02:00:48;79.60;;;30.68;;
37355;SDS011;48747;50.250;18.848;2022-12-18T02:02:51;86.20;;;32.13;;
37355;SDS011;48747;50.250;18.848;2022-12-18T02:04:54;84.95;;;32.80;;
37355;SDS011;48747;50.250;18.848;2022-12-18T02:09:33;76.47;;;29.00;;
37355;SDS011;48747;50.250;18.848;2022-12-18T02:14:08;93.35;;;32.67;;
37355;SDS011;48747;50.250;18.848;2022-12-18T02:16:17;88.70;;;34.70;;
37355;SDS011;48747;50.250;18.848;2022-12-18T02:25:00;87.17;;;31.42;;
37355;SDS011;48747;50.250;18.848;2022-12-18T02:27:04;81.55;;;30.32;;
37355;SDS011;48747;50.250;18.848;2022-12-18T02:29:13;82.37;;;29.45;;
37355;SDS011;48747;50.250;18.848;2022-12-18T02:31:27;75.30;;;28.55;;
37355;SDS011;48747;50.250;18.848;2022-12-18T02:33:32;75.30;;;27.45;;
37355;SDS011;48747;50.250;18.848;2022-12-18T02:35:37;73.02;;;27.13;;
37355;SDS011;48747;50.250;18.848;2022-12-18T02:37:45;81.53;;;27.82;;
37355;SDS011;48747;50.250;18.848;2022-12-18T02:39:49;76.02;;;26.80;;
37355;SDS011;48747;50.250;18.848;2022-12-18T02:41:55;71.00;;;27.35;;
37355;SDS011;48747;50.250;18.848;2022-12-18T02:44:01;66.62;;;26.60;;
37355;SDS011;48747;50.250;18.848;2022-12-18T02:46:26;69.50;;;26.77;;
37355;SDS011;48747;50.250;18.848;2022-12-18T02:48:46;74.53;;;25.72;;
37355;SDS011;48747;50.250;18.848;2022-12-18T02:50:54;66.30;;;24.90;;
37355;SDS011;48747;50.250;18.848;2022-12-18T02:55:28;76.55;;;25.50;;
37355;SDS011;48747;50.250;18.848;2022-12-18T02:57:40;64.30;;;23.98;;
37355;SDS011;48747;50.250;18.848;2022-12-18T02:59:47;76.07;;;27.98;;
37355;SDS011;48747;50.250;18.848;2022-12-18T03:01:53;77.40;;;28.45;;
37355;SDS011;48747;50.250;18.848;2022-12-18T03:04:18;74.05;;;24.85;;
37355;SDS011;48747;50.250;18.848;2022-12-18T03:06:26;74.50;;;25.37;;
37355;SDS011;48747;50.250;18.848;2022-12-18T03:08:32;73.47;;;27.45;;
37355;SDS011;48747;50.250;18.848;2022-12-18T03:10:38;71.70;;;26.65;;
37355;SDS011;48747;50.250;18.848;2022-12-18T03:12:47;68.85;;;24.75;;
37355;SDS011;48747;50.250;18.848;2022-12-18T03:15:05;72.53;;;25.25;;
37355;SDS011;48747;50.250;18.848;2022-12-18T03:17:13;63.78;;;25.10;;
37355;SDS011;48747;50.250;18.848;2022-12-18T03:19:21;70.55;;;26.48;;
37355;SDS011;48747;50.250;18.848;2022-12-18T03:21:36;77.15;;;27.27;;
37355;SDS011;48747;50.250;18.848;2022-12-18T03:23:47;74.85;;;27.50;;
37355;SDS011;48747;50.250;18.848;2022-12-18T03:25:47;73.90;;;27.85;;
37355;SDS011;48747;50.250;18.848;2022-12-18T03:27:54;74.95;;;27.77;;
37355;SDS011;48747;50.250;18.848;2022-12-18T03:30:04;78.75;;;30.55;;
37355;SDS011;48747;50.250;18.848;2022-12-18T03:32:24;79.12;;;30.60;;
37355;SDS011;48747;50.250;18.848;2022-12-18T03:34:30;74.62;;;28.45;;
37355;SDS011;48747;50.250;18.848;2022-12-18T03:36:31;79.30;;;28.00;;
37355;SDS011;48747;50.250;18.848;2022-12-18T03:38:35;78.67;;;29.42;;
37355;SDS011;48747;50.250;18.848;2022-12-18T03:44:57;80.57;;;29.27;;
37355;SDS011;48747;50.250;18.848;2022-12-18T03:49:34;73.02;;;29.32;;
37355;SDS011;48747;50.250;18.848;2022-12-18T03:54:02;82.35;;;28.47;;
37355;SDS011;48747;50.250;18.848;2022-12-18T03:56:02;83.05;;;30.45;;
37355;SDS011;48747;50.250;18.848;2022-12-18T03:58:07;76.82;;;28.60;;
37355;SDS011;48747;50.250;18.848;2022-12-18T04:00:13;80.62;;;29.50;;
37355;SDS011;48747;50.250;18.848;2022-12-18T04:02:18;76.82;;;29.20;;
37355;SDS011;48747;50.250;18.848;2022-12-18T04:04:24;84.85;;;30.57;;
37355;SDS011;48747;50.250;18.848;2022-12-18T04:06:29;83.62;;;31.37;;
37355;SDS011;48747;50.250;18.848;2022-12-18T04:08:33;84.25;;;32.23;;
37355;SDS011;48747;50.250;18.848;2022-12-18T04:10:37;86.95;;;30.55;;
37355;SDS011;48747;50.250;18.848;2022-12-18T04:12:41;88.78;;;31.37;;
37355;SDS011;48747;50.250;18.848;2022-12-18T04:14:44;78.72;;;29.20;;
37355;SDS011;48747;50.250;18.848;2022-12-18T04:16:47;80.83;;;29.85;;
37355;SDS011;48747;50.250;18.848;2022-12-18T04:18:55;85.75;;;29.42;;
37355;SDS011;48747;50.250;18.848;2022-12-18T04:20:57;79.25;;;27.75;;
37355;SDS011;48747;50.250;18.848;2022-12-18T04:23:00;89.05;;;31.35;;
37355;SDS011;48747;50.250;18.848;2022-12-18T04:25:03;77.85;;;30.05;;
37355;SDS011;48747;50.250;18.848;2022-12-18T04:27:06;92.42;;;33.85;;
37355;SDS011;48747;50.250;18.848;2022-12-18T04:29:09;82.40;;;31.45;;
37355;SDS011;48747;50.250;18.848;2022-12-18T04:31:13;80.55;;;30.30;;
37355;SDS011;48747;50.250;18.848;2022-12-18T04:33:16;85.30;;;29.72;;
37355;SDS011;48747;50.250;18.848;2022-12-18T04:35:19;83.15;;;29.50;;
37355;SDS011;48747;50.250;18.848;2022-12-18T04:37:22;80.28;;;30.85;;
37355;SDS011;48747;50.250;18.848;2022-12-18T04:39:25;81.15;;;30.77;;
37355;SDS011;48747;50.250;18.848;2022-12-18T04:41:28;78.78;;;30.62;;
37355;SDS011;48747;50.250;18.848;2022-12-18T04:43:31;79.90;;;29.80;;
37355;SDS011;48747;50.250;18.848;2022-12-18T04:45:34;88.27;;;30.72;;
37355;SDS011;48747;50.250;18.848;2022-12-18T04:47:37;91.40;;;33.25;;
37355;SDS011;48747;50.250;18.848;2022-12-18T04:49:40;91.08;;;34.05;;
37355;SDS011;48747;50.250;18.848;2022-12-18T04:51:43;90.55;;;33.90;;
37355;SDS011;48747;50.250;18.848;2022-12-18T04:53:46;94.00;;;31.62;;
37355;SDS011;48747;50.250;18.848;2022-12-18T04:55:49;87.05;;;31.62;;
37355;SDS011;48747;50.250;18.848;2022-12-18T04:57:52;82.97;;;31.40;;
37355;SDS011;48747;50.250;18.848;2022-12-18T04:59:55;88.97;;;31.97;;
37355;SDS011;48747;50.250;18.848;2022-12-18T05:01:58;93.55;;;33.00;;
37355;SDS011;48747;50.250;18.848;2022-12-18T05:04:01;94.62;;;34.03;;
37355;SDS011;48747;50.250;18.848;2022-12-18T05:06:05;89.35;;;32.73;;
37355;SDS011;48747;50.250;18.848;2022-12-18T05:08:08;97.55;;;33.83;;
37355;SDS011;48747;50.250;18.848;2022-12-18T05:10:11;88.40;;;31.97;;
37355;SDS011;48747;50.250;18.848;2022-12-18T05:12:15;92.05;;;33.63;;
37355;SDS011;48747;50.250;18.848;2022-12-18T05:14:18;93.37;;;32.17;;
37355;SDS011;48747;50.250;18.848;2022-12-18T05:16:21;88.20;;;31.73;;
37355;SDS011;48747;50.250;18.848;2022-12-18T05:18:24;88.82;;;32.15;;
37355;SDS011;48747;50.250;18.848;2022-12-18T05:20:28;91.95;;;34.03;;
37355;SDS011;48747;50.250;18.848;2022-12-18T05:22:31;90.03;;;32.75;;
37355;SDS011;48747;50.250;18.848;2022-12-18T05:24:35;100.15;;;33.70;;
37355;SDS011;48747;50.250;18.848;2022-12-18T05:26:38;96.10;;;34.30;;
37355;SDS011;48747;50.250;18.848;2022-12-18T05:28:41;95.60;;;35.05;;
37355;SDS011;48747;50.250;18.848;2022-12-18T05:30:51;94.80;;;33.08;;
37355;SDS011;48747;50.250;18.848;2022-12-18T05:32:55;99.92;;;33.55;;
37355;SDS011;48747;50.250;18.848;2022-12-18T05:34:58;102.70;;;34.60;;
37355;SDS011;48747;50.250;18.848;2022-12-18T05:37:01;96.67;;;34.75;;
37355;SDS011;48747;50.250;18.848;2022-12-18T05:39:04;103.78;;;34.65;;
37355;SDS011;48747;50.250;18.848;2022-12-18T05:41:07;100.22;;;34.65;;
37355;SDS011;48747;50.250;18.848;2022-12-18T05:43:11;101.33;;;35.60;;
37355;SDS011;48747;50.250;18.848;2022-12-18T05:45:14;100.53;;;33.80;;
37355;SDS011;48747;50.250;18.848;2022-12-18T05:47:17;96.75;;;34.43;;
37355;SDS011;48747;50.250;18.848;2022-12-18T05:49:20;93.55;;;33.15;;
37355;SDS011;48747;50.250;18.848;2022-12-18T05:51:23;103.12;;;33.08;;
37355;SDS011;48747;50.250;18.848;2022-12-18T05:53:26;92.37;;;31.00;;
37355;SDS011;48747;50.250;18.848;2022-12-18T05:55:32;93.60;;;32.10;;
37355;SDS011;48747;50.250;18.848;2022-12-18T05:57:37;95.20;;;33.08;;
37355;SDS011;48747;50.250;18.848;2022-12-18T05:59:40;95.07;;;33.08;;
37355;SDS011;48747;50.250;18.848;2022-12-18T06:01:43;109.45;;;35.35;;
37355;SDS011;48747;50.250;18.848;2022-12-18T06:03:46;101.45;;;34.95;;
37355;SDS011;48747;50.250;18.848;2022-12-18T06:05:49;104.97;;;36.48;;
37355;SDS011;48747;50.250;18.848;2022-12-18T06:07:52;99.37;;;35.83;;
37355;SDS011;48747;50.250;18.848;2022-12-18T06:09:55;99.20;;;33.38;;
37355;SDS011;48747;50.250;18.848;2022-12-18T06:11:59;96.12;;;34.27;;
37355;SDS011;48747;50.250;18.848;2022-12-18T06:14:02;96.72;;;32.53;;
37355;SDS011;48747;50.250;18.848;2022-12-18T06:16:06;98.62;;;32.33;;
37355;SDS011;48747;50.250;18.848;2022-12-18T06:18:09;96.92;;;32.53;;
37355;SDS011;48747;50.250;18.848;2022-12-18T06:20:12;89.75;;;32.17;;
37355;SDS011;48747;50.250;18.848;2022-12-18T06:22:15;97.12;;;32.05;;
37355;SDS011;48747;50.250;18.848;2022-12-18T06:24:18;91.35;;;31.60;;
37355;SDS011;48747;50.250;18.848;2022-12-18T06:26:22;89.07;;;31.25;;
37355;SDS011;48747;50.250;18.848;2022-12-18T06:28:25;100.33;;;35.30;;
37355;SDS011;48747;50.250;18.848;2022-12-18T06:30:28;91.78;;;31.82;;
37355;SDS011;48747;50.250;18.848;2022-12-18T06:32:31;92.95;;;32.00;;
37355;SDS011;48747;50.250;18.848;2022-12-18T06:34:34;93.85;;;31.90;;
37355;SDS011;48747;50.250;18.848;2022-12-18T06:36:41;96.80;;;32.75;;
37355;SDS011;48747;50.250;18.848;2022-12-18T06:38:44;99.32;;;32.05;;
37355;SDS011;48747;50.250;18.848;2022-12-18T06:40:47;99.62;;;34.03;;
37355;SDS011;48747;50.250;18.848;2022-12-18T06:42:50;91.45;;;31.62;;
37355;SDS011;48747;50.250;18.848;2022-12-18T06:44:53;93.50;;;31.60;;
37355;SDS011;48747;50.250;18.848;2022-12-18T06:46:56;100.10;;;33.58;;
37355;SDS011;48747;50.250;18.848;2022-12-18T06:49:05;96.08;;;33.23;;
37355;SDS011;48747;50.250;18.848;2022-12-18T06:51:04;95.15;;;33.28;;
37355;SDS011;48747;50.250;18.848;2022-12-18T06:53:07;97.27;;;31.80;;
37355;SDS011;48747;50.250;18.848;2022-12-18T06:55:12;96.63;;;31.68;;
37355;SDS011;48747;50.250;18.848;2022-12-18T06:57:15;100.10;;;34.78;;
37355;SDS011;48747;50.250;18.848;2022-12-18T06:59:23;96.42;;;32.93;;
37355;SDS011;48747;50.250;18.848;2022-12-18T07:01:23;105.90;;;35.88;;
37355;SDS011;48747;50.250;18.848;2022-12-18T07:03:26;113.22;;;36.73;;
37355;SDS011;48747;50.250;18.848;2022-12-18T07:05:29;102.25;;;35.45;;
37355;SDS011;48747;50.250;18.848;2022-12-18T07:07:33;107.92;;;35.15;;
37355;SDS011;48747;50.250;18.848;2022-12-18T07:09:37;96.45;;;34.15;;
37355;SDS011;48747;50.250;18.848;2022-12-18T07:11:40;103.58;;;34.73;;
37355;SDS011;48747;50.250;18.848;2022-12-18T07:13:43;106.32;;;37.28;;
37355;SDS011;48747;50.250;18.848;2022-12-18T07:15:46;98.22;;;34.27;;
37355;SDS011;48747;50.250;18.848;2022-12-18T07:17:49;105.75;;;34.50;;
37355;SDS011;48747;50.250;18.848;2022-12-18T07:19:52;101.20;;;35.08;;
37355;SDS011;48747;50.250;18.848;2022-12-18T07:21:55;99.42;;;33.90;;
37355;SDS011;48747;50.250;18.848;2022-12-18T07:23:59;116.05;;;41.75;;
37355;SDS011;48747;50.250;18.848;2022-12-18T07:26:06;105.50;;;34.58;;
37355;SDS011;48747;50.250;18.848;2022-12-18T07:28:12;85.35;;;31.20;;
37355;SDS011;48747;50.250;18.848;2022-12-18T07:30:16;117.70;;;38.65;;
37355;SDS011;48747;50.250;18.848;2022-12-18T07:32:19;124.15;;;39.20;;
37355;SDS011;48747;50.250;18.848;2022-12-18T07:34:22;107.95;;;37.15;;
37355;SDS011;48747;50.250;18.848;2022-12-18T07:36:25;117.53;;;41.35;;
37355;SDS011;48747;50.250;18.848;2022-12-18T07:38:28;104.30;;;36.90;;
37355;SDS011;48747;50.250;18.848;2022-12-18T07:40:31;109.95;;;41.20;;
37355;SDS011;48747;50.250;18.848;2022-12-18T07:42:34;91.92;;;32.75;;
37355;SDS011;48747;50.250;18.848;2022-12-18T07:44:40;105.43;;;37.42;;
37355;SDS011;48747;50.250;18.848;2022-12-18T07:46:49;94.00;;;34.27;;
37355;SDS011;48747;50.250;18.848;2022-12-18T07:48:48;101.85;;;36.88;;
37355;SDS011;48747;50.250;18.848;2022-12-18T07:50:51;94.52;;;35.23;;
37355;SDS011;48747;50.250;18.848;2022-12-18T07:52:54;101.90;;;34.58;;
37355;SDS011;48747;50.250;18.848;2022-12-18T07:55:00;93.70;;;35.38;;
37355;SDS011;48747;50.250;18.848;2022-12-18T07:57:02;108.92;;;38.30;;
37355;SDS011;48747;50.250;18.848;2022-12-18T07:59:07;115.17;;;41.73;;
37355;SDS011;48747;50.250;18.848;2022-12-18T08:01:10;113.40;;;40.08;;
37355;SDS011;48747;50.250;18.848;2022-12-18T08:03:13;105.47;;;38.55;;
37355;SDS011;48747;50.250;18.848;2022-12-18T08:05:17;113.75;;;40.50;;
37355;SDS011;48747;50.250;18.848;2022-12-18T08:07:21;105.22;;;38.20;;
37355;SDS011;48747;50.250;18.848;2022-12-18T08:09:25;107.22;;;36.68;;
37355;SDS011;48747;50.250;18.848;2022-12-18T08:11:28;103.67;;;38.00;;
37355;SDS011;48747;50.250;18.848;2022-12-18T08:13:31;112.22;;;39.53;;
37355;SDS011;48747;50.250;18.848;2022-12-18T08:15:34;97.37;;;38.08;;
37355;SDS011;48747;50.250;18.848;2022-12-18T08:17:37;97.25;;;35.40;;
37355;SDS011;48747;50.250;18.848;2022-12-18T08:19:43;130.75;;;44.80;;
37355;SDS011;48747;50.250;18.848;2022-12-18T08:21:45;112.30;;;39.92;;
37355;SDS011;48747;50.250;18.848;2022-12-18T08:23:48;113.35;;;40.43;;
37355;SDS011;48747;50.250;18.848;2022-12-18T08:25:52;116.08;;;41.45;;
37355;SDS011;48747;50.250;18.848;2022-12-18T08:27:55;102.87;;;38.40;;
37355;SDS011;48747;50.250;18.848;2022-12-18T08:29:59;126.80;;;43.08;;
37355;SDS011;48747;50.250;18.848;2022-12-18T08:32:02;121.57;;;45.10;;
37355;SDS011;48747;50.250;18.848;2022-12-18T08:34:05;118.20;;;44.30;;
37355;SDS011;48747;50.250;18.848;2022-12-18T08:36:09;93.78;;;35.73;;
37355;SDS011;48747;50.250;18.848;2022-12-18T08:38:13;108.90;;;38.63;;
37355;SDS011;48747;50.250;18.848;2022-12-18T08:40:16;123.07;;;45.45;;
37355;SDS011;48747;50.250;18.848;2022-12-18T08:42:19;158.60;;;60.50;;
37355;SDS011;48747;50.250;18.848;2022-12-18T08:44:40;118.40;;;45.85;;
37355;SDS011;48747;50.250;18.848;2022-12-18T08:46:45;125.12;;;46.05;;
37355;SDS011;48747;50.250;18.848;2022-12-18T08:48:48;124.92;;;47.75;;
37355;SDS011;48747;50.250;18.848;2022-12-18T08:50:54;106.63;;;38.65;;
37355;SDS011;48747;50.250;18.848;2022-12-18T08:53:04;111.70;;;41.20;;
37355;SDS011;48747;50.250;18.848;2022-12-18T08:55:03;118.82;;;42.58;;
37355;SDS011;48747;50.250;18.848;2022-12-18T08:57:07;110.57;;;40.20;;
37355;SDS011;48747;50.250;18.848;2022-12-18T08:59:10;108.32;;;37.88;;
37355;SDS011;48747;50.250;18.848;2022-12-18T09:01:13;114.30;;;42.60;;
37355;SDS011;48747;50.250;18.848;2022-12-18T09:03:17;118.02;;;41.00;;
37355;SDS011;48747;50.250;18.848;2022-12-18T09:05:22;114.72;;;40.35;;
37355;SDS011;48747;50.250;18.848;2022-12-18T09:07:27;94.92;;;34.55;;
37355;SDS011;48747;50.250;18.848;2022-12-18T09:09:30;92.12;;;31.97;;
37355;SDS011;48747;50.250;18.848;2022-12-18T09:11:34;92.53;;;33.98;;
37355;SDS011;48747;50.250;18.848;2022-12-18T09:13:37;91.70;;;35.63;;
37355;SDS011;48747;50.250;18.848;2022-12-18T09:15:46;93.17;;;36.58;;
37355;SDS011;48747;50.250;18.848;2022-12-18T09:17:46;96.30;;;37.83;;
37355;SDS011;48747;50.250;18.848;2022-12-18T09:19:51;86.37;;;33.10;;
37355;SDS011;48747;50.250;18.848;2022-12-18T09:21:54;86.02;;;33.10;;
37355;SDS011;48747;50.250;18.848;2022-12-18T09:23:57;88.10;;;33.98;;
37355;SDS011;48747;50.250;18.848;2022-12-18T09:26:02;88.72;;;33.83;;
37355;SDS011;48747;50.250;18.848;2022-12-18T09:28:06;80.72;;;31.42;;
37355;SDS011;48747;50.250;18.848;2022-12-18T09:30:16;83.25;;;35.08;;
37355;SDS011;48747;50.250;18.848;2022-12-18T09:32:19;103.17;;;49.50;;
37355;SDS011;48747;50.250;18.848;2022-12-18T09:34:22;90.42;;;39.30;;
37355;SDS011;48747;50.250;18.848;2022-12-18T09:36:31;79.65;;;35.92;;
37355;SDS011;48747;50.250;18.848;2022-12-18T09:38:30;87.65;;;30.90;;
37355;SDS011;48747;50.250;18.848;2022-12-18T09:40:46;71.87;;;28.50;;
37355;SDS011;48747;50.250;18.848;2022-12-18T09:42:52;80.60;;;29.85;;
37355;SDS011;48747;50.250;18.848;2022-12-18T09:44:55;184.10;;;108.03;;
37355;SDS011;48747;50.250;18.848;2022-12-18T09:49:14;85.92;;;33.65;;
37355;SDS011;48747;50.250;18.848;2022-12-18T09:51:26;89.32;;;33.85;;
37355;SDS011;48747;50.250;18.848;2022-12-18T09:53:30;119.95;;;48.02;;
37355;SDS011;48747;50.250;18.848;2022-12-18T09:55:43;125.60;;;48.23;;
37355;SDS011;48747;50.250;18.848;2022-12-18T09:57:45;89.42;;;37.15;;
37355;SDS011;48747;50.250;18.848;2022-12-18T09:59:54;84.52;;;34.33;;
37355;SDS011;48747;50.250;18.848;2022-12-18T10:01:55;89.50;;;36.73;;
37355;SDS011;48747;50.250;18.848;2022-12-18T10:03:59;71.77;;;32.33;;
37355;SDS011;48747;50.250;18.848;2022-12-18T10:06:06;80.65;;;37.03;;
37355;SDS011;48747;50.250;18.848;2022-12-18T10:08:19;86.10;;;36.33;;
37355;SDS011;48747;50.250;18.848;2022-12-18T10:10:43;93.85;;;38.65;;
37355;SDS011;48747;50.250;18.848;2022-12-18T10:15:30;89.40;;;34.45;;
37355;SDS011;48747;50.250;18.848;2022-12-18T10:17:41;81.57;;;32.63;;
37355;SDS011;48747;50.250;18.848;2022-12-18T10:27:22;72.00;;;31.60;;
37355;SDS011;48747;50.250;18.848;2022-12-18T10:29:27;74.40;;;31.82;;
37355;SDS011;48747;50.250;18.848;2022-12-18T10:31:30;74.97;;;31.42;;
37355;SDS011;48747;50.250;18.848;2022-12-18T10:33:34;73.60;;;31.50;;
37355;SDS011;48747;50.250;18.848;2022-12-18T10:35:37;78.80;;;31.02;;
37355;SDS011;48747;50.250;18.848;2022-12-18T10:37:59;74.72;;;31.17;;
37355;SDS011;48747;50.250;18.848;2022-12-18T10:40:15;80.03;;;30.97;;
37355;SDS011;48747;50.250;18.848;2022-12-18T10:42:19;77.05;;;33.18;;
37355;SDS011;48747;50.250;18.848;2022-12-18T10:44:23;86.87;;;36.83;;
37355;SDS011;48747;50.250;18.848;2022-12-18T10:46:28;81.75;;;32.85;;
37355;SDS011;48747;50.250;18.848;2022-12-18T10:48:31;77.90;;;31.27;;
37355;SDS011;48747;50.250;18.848;2022-12-18T10:50:45;69.58;;;30.12;;
37355;SDS011;48747;50.250;18.848;2022-12-18T10:52:57;69.22;;;27.73;;
37355;SDS011;48747;50.250;18.848;2022-12-18T10:55:02;64.95;;;27.35;;
37355;SDS011;48747;50.250;18.848;2022-12-18T10:57:28;68.05;;;28.35;;
37355;SDS011;48747;50.250;18.848;2022-12-18T10:59:30;72.17;;;28.12;;
37355;SDS011;48747;50.250;18.848;2022-12-18T11:01:46;82.02;;;33.70;;
37355;SDS011;48747;50.250;18.848;2022-12-18T11:06:06;72.82;;;31.10;;
37355;SDS011;48747;50.250;18.848;2022-12-18T11:08:19;74.07;;;29.40;;
37355;SDS011;48747;50.250;18.848;2022-12-18T11:10:17;77.03;;;31.12;;
37355;SDS011;48747;50.250;18.848;2022-12-18T11:12:21;71.92;;;29.50;;
37355;SDS011;48747;50.250;18.848;2022-12-18T11:18:40;75.72;;;29.98;;
37355;SDS011;48747;50.250;18.848;2022-12-18T11:20:43;75.08;;;31.05;;
37355;SDS011;48747;50.250;18.848;2022-12-18T11:23:03;66.87;;;28.60;;
37355;SDS011;48747;50.250;18.848;2022-12-18T11:27:21;66.05;;;28.83;;
37355;SDS011;48747;50.250;18.848;2022-12-18T11:29:27;69.15;;;28.05;;
37355;SDS011;48747;50.250;18.848;2022-12-18T11:31:40;75.37;;;30.05;;
37355;SDS011;48747;50.250;18.848;2022-12-18T11:33:44;76.75;;;31.93;;
37355;SDS011;48747;50.250;18.848;2022-12-18T11:36:01;68.90;;;29.32;;
37355;SDS011;48747;50.250;18.848;2022-12-18T11:40:36;78.83;;;31.17;;
37355;SDS011;48747;50.250;18.848;2022-12-18T11:42:47;70.35;;;27.60;;
37355;SDS011;48747;50.250;18.848;2022-12-18T11:44:52;76.42;;;28.92;;
37355;SDS011;48747;50.250;18.848;2022-12-18T11:47:29;63.28;;;27.17;;
37355;SDS011;48747;50.250;18.848;2022-12-18T11:49:43;64.80;;;27.42;;
37355;SDS011;48747;50.250;18.848;2022-12-18T11:54:14;62.40;;;25.25;;
37355;SDS011;48747;50.250;18.848;2022-12-18T11:58:40;61.50;;;25.88;;
37355;SDS011;48747;50.250;18.848;2022-12-18T12:00:56;57.58;;;23.62;;
37355;SDS011;48747;50.250;18.848;2022-12-18T12:07:38;52.50;;;22.02;;
37355;SDS011;48747;50.250;18.848;2022-12-18T12:09:46;54.85;;;22.45;;
37355;SDS011;48747;50.250;18.848;2022-12-18T12:12:16;50.33;;;19.98;;
37355;SDS011;48747;50.250;18.848;2022-12-18T12:14:36;58.85;;;23.98;;
37355;SDS011;48747;50.250;18.848;2022-12-18T12:21:39;57.15;;;23.50;;
37355;SDS011;48747;50.250;18.848;2022-12-18T12:23:45;56.70;;;23.35;;
37355;SDS011;48747;50.250;18.848;2022-12-18T12:26:06;50.85;;;21.37;;
37355;SDS011;48747;50.250;18.848;2022-12-18T12:33:15;58.05;;;22.95;;
37355;SDS011;48747;50.250;18.848;2022-12-18T12:37:44;55.58;;;22.77;;
37355;SDS011;48747;50.250;18.848;2022-12-18T12:39:49;62.65;;;24.07;;
37355;SDS011;48747;50.250;18.848;2022-12-18T12:41:55;57.23;;;23.22;;
37355;SDS011;48747;50.250;18.848;2022-12-18T12:44:05;57.70;;;22.42;;
37355;SDS011;48747;50.250;18.848;2022-12-18T12:46:12;51.10;;;22.13;;
37355;SDS011;48747;50.250;18.848;2022-12-18T12:48:19;52.03;;;23.22;;
37355;SDS011;48747;50.250;18.848;2022-12-18T12:50:41;56.73;;;23.00;;
37355;SDS011;48747;50.250;18.848;2022-12-18T12:52:42;98.60;;;45.48;;
37355;SDS011;48747;50.250;18.848;2022-12-18T12:54:48;58.60;;;25.17;;
37355;SDS011;48747;50.250;18.848;2022-12-18T12:56:57;60.70;;;26.62;;
37355;SDS011;48747;50.250;18.848;2022-12-18T12:59:12;56.65;;;22.80;;
37355;SDS011;48747;50.250;18.848;2022-12-18T13:10:59;60.43;;;23.62;;
37355;SDS011;48747;50.250;18.848;2022-12-18T13:13:20;61.75;;;24.75;;
37355;SDS011;48747;50.250;18.848;2022-12-18T13:15:24;60.48;;;26.95;;
37355;SDS011;48747;50.250;18.848;2022-12-18T13:17:32;65.55;;;27.77;;
37355;SDS011;48747;50.250;18.848;2022-12-18T13:19:35;58.20;;;25.25;;